Albers, Illinois
Current Conditions -  °F | °C
As of 6:03 PM on Saturday 22 Nov 2014 (Local Time) from KBLV Reporting Station
Light Rain Light Rain  
Wind Chill: 54°   Ceiling: 2900
Heat Index: 54°   Visibility: 10mi
Dew Point: 52°   Wind: 9mph
Humidity: 94%   Direction: 170°S
Pressure: 29.96"   Gusts: NA
Location:  38.54°N, 89.61°W
Report Text: KBLV 230003Z AUTO 17008KT 10SM -RA OVC029 12/11 A2996 RMK AO2
Loading
Personal Weather Stations






























Interactive Weather Map New forecast layout! Learn more

10-Day Weather Forecast

Advertisements
Track Severe Weather on mobile